Time;durP1;ratioP1;P1;durP2;ratioP2;P2;SDS_P1;SDS_P2;PMS_P1;PMS_P2;Temp;Humidity;BMP_temperature;BMP_pressure;BME280_temperature;BME280_humidity;BME280_pressure;Samples;Min_cycle;Max_cycle;Signal;HPM_P1;HPM_P2
2021/05/07 00:01:43;;;;;;;1.25;1.00;;;7.90;99.90;;;;;;5011965;28;20061;-83
2021/05/07 00:04:14;;;;;;;1.20;1.10;;;8.10;99.90;;;;;;5010334;28;20053;-83
2021/05/07 00:06:46;;;;;;;1.48;1.10;;;8.10;99.90;;;;;;5010405;28;20053;-84
2021/05/07 00:09:13;;;;;;;2.05;1.50;;;8.10;99.90;;;;;;5011315;28;20061;-84
2021/05/07 00:11:47;;;;;;;0.93;0.93;;;8.00;99.90;;;;;;5009196;28;20479;-84
2021/05/07 00:14:20;;;;;;;2.03;1.00;;;8.00;99.90;;;;;;5010930;28;20487;-83
2021/05/07 00:16:49;;;;;;;;;;;8.00;99.90;;;;;;5010887;28;20084;-84
2021/05/07 00:19:16;;;;;;;1.17;0.77;;;8.10;99.90;;;;;;4982138;28;20365;-83
2021/05/07 00:21:45;;;;;;;3.83;0.80;;;8.10;99.90;;;;;;5027198;28;20064;-82
2021/05/07 00:24:12;;;;;;;2.15;1.42;;;8.10;99.90;;;;;;4980890;28;20502;-82
2021/05/07 00:26:39;;;;;;;0.82;0.82;;;8.10;99.90;;;;;;5030963;28;20064;-83
2021/05/07 00:29:07;;;;;;;1.38;1.27;;;8.10;99.90;;;;;;4981229;28;20057;-83
2021/05/07 00:31:35;;;;;;;1.75;1.02;;;8.10;99.90;;;;;;5012977;28;20049;-82
2021/05/07 00:34:09;;;;;;;3.28;1.15;;;8.20;99.90;;;;;;5014119;28;20065;-83
2021/05/07 00:36:37;;;;;;;0.73;0.73;;;8.20;99.90;;;;;;5014383;28;20053;-83
2021/05/07 00:39:05;;;;;;;1.75;0.77;;;8.10;99.90;;;;;;5010456;28;20049;-82
2021/05/07 00:41:33;;;;;;;2.25;0.60;;;8.10;99.90;;;;;;5010918;28;20049;-80
2021/05/07 00:44:01;;;;;;;1.75;0.60;;;8.00;99.90;;;;;;4993473;28;20041;-79
2021/05/07 00:46:28;;;;;;;0.47;0.47;;;8.00;99.90;;;;;;4976906;28;20057;-80
2021/05/07 00:48:56;;;;;;;0.50;0.50;;;7.90;99.90;;;;;;5011408;28;20053;-80
2021/05/07 00:51:24;;;;;;;0.90;0.90;;;7.80;99.90;;;;;;4992949;28;20042;-82
2021/05/07 00:53:52;;;;;;;3.13;0.90;;;7.80;99.90;;;;;;4977566;28;20050;-80
2021/05/07 00:56:20;;;;;;;1.40;1.27;;;7.70;99.90;;;;;;4992804;28;20049;-84
2021/05/07 00:58:48;;;;;;;1.17;0.77;;;7.70;99.90;;;;;;4977279;28;20041;-82
2021/05/07 01:01:15;;;;;;;1.40;0.80;;;7.70;99.90;;;;;;5017263;28;20057;-85
2021/05/07 01:03:43;;;;;;;1.10;0.70;;;7.70;99.90;;;;;;4999905;28;20053;-83
2021/05/07 01:06:10;;;;;;;0.95;0.63;;;7.60;99.90;;;;;;5015489;28;20058;-84
2021/05/07 01:08:38;;;;;;;0.90;0.85;;;7.60;99.90;;;;;;5036957;28;20064;-83
2021/05/07 01:11:06;;;;;;;0.70;0.70;;;7.60;99.90;;;;;;5018868;28;20105;-82
2021/05/07 01:13:33;;;;;;;0.80;0.63;;;7.60;99.90;;;;;;4987266;28;20045;-84
2021/05/07 01:16:10;;;;;;;1.13;0.70;;;7.60;99.90;;;;;;5019161;28;20050;-85
2021/05/07 01:18:38;;;;;;;1.02;0.93;;;7.70;99.90;;;;;;5002192;28;20053;-83
2021/05/07 01:21:07;;;;;;;0.63;0.63;;;7.70;99.90;;;;;;5002793;28;20050;-85
2021/05/07 01:23:35;;;;;;;1.15;0.70;;;7.60;99.90;;;;;;5002908;28;20049;-84
2021/05/07 01:26:02;;;;;;;0.65;0.60;;;7.70;99.90;;;;;;5003384;28;20410;-83
2021/05/07 01:28:32;;;;;;;1.27;0.70;;;7.60;99.90;;;;;;5002262;28;20049;-83
2021/05/07 01:31:06;;;;;;;0.50;0.50;;;7.70;99.90;;;;;;5003068;28;20052;-83
2021/05/07 01:33:38;;;;;;;1.00;0.60;;;7.60;99.90;;;;;;5015650;28;20067;-84
2021/05/07 01:36:06;;;;;;;0.80;0.80;;;7.80;99.90;;;;;;4990873;28;20053;-83
2021/05/07 01:38:36;;;;;;;0.50;0.50;;;7.80;99.90;;;;;;4999134;28;20053;-85
2021/05/07 01:41:07;;;;;;;0.88;0.80;;;7.80;99.90;;;;;;4983017;28;20049;-83
2021/05/07 01:43:39;;;;;;;0.52;0.52;;;7.80;99.90;;;;;;4999296;28;20499;-85
2021/05/07 01:46:07;;;;;;;0.85;0.80;;;7.90;99.90;;;;;;4999673;28;20061;-81
2021/05/07 01:48:40;;;;;;;0.73;0.73;;;7.80;99.90;;;;;;4999328;28;20054;-86
2021/05/07 01:51:09;;;;;;;2.80;0.75;;;7.80;99.90;;;;;;5013838;28;20045;-85
2021/05/07 01:53:41;;;;;;;0.70;0.70;;;7.70;99.90;;;;;;4968532;28;20054;-85
2021/05/07 01:56:09;;;;;;;0.93;0.60;;;7.60;99.90;;;;;;5016876;28;20053;-83
2021/05/07 01:58:49;;;;;;;1.65;0.88;;;7.70;99.90;;;;;;4999280;28;20034;-84
2021/05/07 02:01:19;;;;;;;0.90;0.80;;;7.80;99.90;;;;;;4999413;28;20050;-84
2021/05/07 02:03:50;;;;;;;0.75;0.75;;;7.90;99.90;;;;;;5016529;28;20053;-83
2021/05/07 02:06:26;;;;;;;0.50;0.50;;;7.90;99.90;;;;;;5016317;28;20057;-83
2021/05/07 02:08:54;;;;;;;0.88;0.88;;;7.90;99.90;;;;;;5019292;28;20402;-84
2021/05/07 02:11:22;;;;;;;0.85;0.80;;;7.90;99.90;;;;;;5016152;28;20054;-85
2021/05/07 02:13:49;;;;;;;0.60;0.60;;;7.90;99.90;;;;;;5016238;28;20053;-83
2021/05/07 02:16:17;;;;;;;1.92;1.10;;;7.90;99.90;;;;;;5015175;28;20044;-84
2021/05/07 02:18:46;;;;;;;0.70;0.70;;;7.90;99.90;;;;;;5014336;28;20048;-85
2021/05/07 02:21:17;;;;;;;1.95;0.70;;;7.90;99.90;;;;;;5013022;28;20058;-86
2021/05/07 02:23:45;;;;;;;0.98;0.98;;;7.90;99.90;;;;;;4992427;28;20038;-84
2021/05/07 02:26:13;;;;;;;2.05;0.77;;;7.90;99.90;;;;;;5006427;28;20058;-85
2021/05/07 02:29:00;;;;;;;0.95;0.95;;;7.90;99.90;;;;;;4965725;28;20514;-85
2021/05/07 02:31:41;;;;;;;2.97;0.88;;;7.80;99.90;;;;;;4979016;28;20048;-85
2021/05/07 02:34:15;;;;;;;0.95;0.85;;;7.80;99.90;;;;;;5012389;28;20053;-84
2021/05/07 02:36:46;;;;;;;1.27;1.17;;;7.70;99.90;;;;;;4981811;28;20042;-84
2021/05/07 02:39:16;;;;;;;1.67;0.95;;;7.70;99.90;;;;;;5012752;28;20065;-84
2021/05/07 02:41:48;;;;;;;0.80;0.70;;;7.70;99.90;;;;;;5013024;28;20046;-84
2021/05/07 02:44:16;;;;;;;1.40;0.93;;;7.70;99.90;;;;;;5013005;28;20053;-85
2021/05/07 02:46:44;;;;;;;6.70;1.15;;;7.70;99.90;;;;;;4995044;28;20502;-84
2021/05/07 02:49:12;;;;;;;0.50;0.50;;;7.80;99.90;;;;;;5013244;28;20049;-83
2021/05/07 02:51:41;;;;;;;0.90;0.73;;;7.80;99.90;;;;;;4994034;28;20058;-85
2021/05/07 02:54:16;;;;;;;1.45;1.23;;;7.80;99.90;;;;;;4996063;28;20050;-85
2021/05/07 02:56:47;;;;;;;3.33;1.27;;;7.80;99.90;;;;;;5012226;28;20037;-85
2021/05/07 02:59:18;;;;;;;0.80;0.80;;;7.80;99.90;;;;;;5031704;28;20037;-85
2021/05/07 03:01:45;;;;;;;3.92;1.02;;;7.90;99.90;;;;;;5032652;28;20053;-81
2021/05/07 03:04:13;;;;;;;0.98;0.82;;;7.80;99.90;;;;;;5032192;28;20068;-81
2021/05/07 03:06:48;;;;;;;0.82;0.80;;;7.90;99.90;;;;;;5012165;28;20058;-85
2021/05/07 03:09:16;;;;;;;1.15;0.70;;;7.90;99.90;;;;;;5013338;28;20053;-82
2021/05/07 03:11:49;;;;;;;1.25;1.15;;;8.00;99.90;;;;;;4994542;28;20116;-85
2021/05/07 03:14:16;;;;;;;1.58;0.70;;;7.80;99.90;;;;;;5011564;28;20057;-84
2021/05/07 03:16:44;;;;;;;1.30;1.20;;;7.70;99.90;;;;;;5011958;28;20126;-84
2021/05/07 03:19:22;;;;;;;0.80;0.70;;;7.70;99.90;;;;;;5012483;28;20042;-84
2021/05/07 03:21:49;;;;;;;;;;;7.70;99.90;;;;;;5010679;28;20053;-85
2021/05/07 03:24:19;;;;;;;0.90;0.80;;;7.60;99.90;;;;;;5011055;28;19925;-86
2021/05/07 03:26:49;;;;;;;3.80;0.75;;;7.60;99.90;;;;;;4997618;28;20034;-84
2021/05/07 03:29:16;;;;;;;1.67;1.58;;;7.50;99.90;;;;;;4999241;28;20053;-79
2021/05/07 03:31:44;;;;;;;0.80;0.80;;;7.50;99.90;;;;;;5012214;28;20427;-79
2021/05/07 03:34:11;;;;;;;0.63;0.63;;;7.40;99.90;;;;;;5031932;28;20045;-85
2021/05/07 03:36:49;;;;;;;1.95;1.05;;;7.30;99.90;;;;;;5027173;28;20133;-83
2021/05/07 03:39:17;;;;;;;1.55;1.45;;;7.30;99.90;;;;;;5029701;28;20038;-81
2021/05/07 03:41:47;;;;;;;0.88;0.88;;;7.40;99.90;;;;;;5032289;28;20050;-82
2021/05/07 03:44:17;;;;;;;1.30;0.85;;;7.40;99.90;;;;;;5013855;28;20048;-85
2021/05/07 03:46:48;;;;;;;0.90;0.77;;;7.30;99.90;;;;;;5031246;28;20049;-85
2021/05/07 03:49:42;;;;;;;0.88;0.88;;;7.30;99.90;;;;;;5032561;28;20402;-84
2021/05/07 03:52:13;;;;;;;1.48;1.17;;;7.20;99.90;;;;;;5013501;28;20045;-84
2021/05/07 03:54:59;;;;;;;7.43;2.05;;;7.30;99.90;;;;;;5015216;28;20041;-85
2021/05/07 03:57:30;;;;;;;1.48;1.10;;;7.30;99.90;;;;;;5031167;28;20041;-85
2021/05/07 04:00:15;;;;;;;7.20;3.42;;;7.40;99.90;;;;;;5030350;28;20044;-85
2021/05/07 04:02:46;;;;;;;3.50;0.70;;;7.30;99.90;;;;;;5030934;28;20045;-84
2021/05/07 04:05:14;;;;;;;2.92;1.15;;;7.30;99.90;;;;;;5023340;28;20046;-85
2021/05/07 04:08:19;;;;;;;1.08;0.98;;;7.50;99.90;;;;;;5010103;28;20041;-85
2021/05/07 04:11:12;;;;;;;1.60;1.20;;;7.40;99.90;;;;;;4999916;28;20041;-85
2021/05/07 04:13:40;;;;;;;0.95;0.90;;;7.50;99.90;;;;;;5010718;28;20053;-84
2021/05/07 04:16:12;;;;;;;1.20;1.10;;;7.50;99.90;;;;;;5010265;28;20053;-85
2021/05/07 04:18:42;;;;;;;3.50;3.20;;;7.50;99.90;;;;;;5009984;28;20050;-84
2021/05/07 04:21:10;;;;;;;2.92;1.17;;;7.50;99.90;;;;;;4991553;28;20050;-84
2021/05/07 04:23:38;;;;;;;1.17;1.13;;;7.40;99.90;;;;;;4993532;28;20046;-83
2021/05/07 04:26:08;;;;;;;2.97;1.80;;;7.40;99.90;;;;;;4978022;28;20046;-85
2021/05/07 04:28:40;;;;;;;2.15;1.10;;;7.30;99.90;;;;;;5011289;28;20046;-84
2021/05/07 04:31:08;;;;;;;1.13;1.02;;;7.40;99.90;;;;;;4993011;28;20050;-84
2021/05/07 04:33:35;;;;;;;2.00;1.20;;;7.50;99.90;;;;;;5008494;28;20479;-80
2021/05/07 04:36:06;;;;;;;2.83;2.63;;;7.60;99.90;;;;;;5013459;28;20045;-86
2021/05/07 04:38:36;;;;;;;0.95;0.85;;;7.60;99.90;;;;;;4992778;28;20050;-87
2021/05/07 04:41:17;;;;;;;1.98;0.95;;;7.60;99.90;;;;;;5010865;28;20061;-86
2021/05/07 04:43:45;;;;;;;2.80;1.10;;;7.50;99.90;;;;;;5013203;28;20058;-84
2021/05/07 04:46:12;;;;;;;3.75;1.00;;;7.50;99.90;;;;;;4993311;28;20057;-81
2021/05/07 04:48:39;;;;;;;1.65;1.08;;;7.50;99.90;;;;;;4993109;28;20046;-83
2021/05/07 04:51:12;;;;;;;3.85;0.80;;;7.40;99.90;;;;;;4992892;28;20046;-83
2021/05/07 04:53:40;;;;;;;1.95;1.25;;;7.40;99.90;;;;;;4993914;28;20045;-83
2021/05/07 04:56:07;;;;;;;2.95;2.35;;;7.50;99.90;;;;;;4993095;28;20041;-83
2021/05/07 04:58:35;;;;;;;1.13;1.02;;;7.40;99.90;;;;;;5009388;28;20062;-84
2021/05/07 05:01:04;;;;;;;1.15;1.15;;;7.50;99.90;;;;;;5009263;28;20069;-82
2021/05/07 05:03:35;;;;;;;1.70;1.13;;;7.60;99.90;;;;;;5010572;28;20042;-83
2021/05/07 05:06:03;;;;;;;1.80;0.95;;;7.60;99.90;;;;;;4993276;28;20052;-84
2021/05/07 05:08:31;;;;;;;1.25;1.02;;;7.60;99.90;;;;;;4976942;28;20061;-82
2021/05/07 05:10:59;;;;;;;4.80;1.05;;;7.70;99.90;;;;;;5010156;28;20045;-83
2021/05/07 05:13:27;;;;;;;1.15;1.05;;;7.70;99.90;;;;;;4993676;28;20061;-81
2021/05/07 05:15:56;;;;;;;2.13;1.77;;;7.70;99.90;;;;;;4992724;28;20050;-81
2021/05/07 05:18:29;;;;;;;5.00;1.15;;;7.50;99.90;;;;;;5009958;28;20391;-83
2021/05/07 05:21:00;;;;;;;4.68;1.38;;;7.40;99.90;;;;;;5010398;28;20061;-84
2021/05/07 05:23:29;;;;;;;2.08;1.20;;;7.30;99.90;;;;;;5009758;28;20077;-83
2021/05/07 05:25:57;;;;;;;4.93;3.35;;;7.30;99.90;;;;;;5010847;28;20061;-83
2021/05/07 05:28:26;;;;;;;1.23;0.85;;;7.30;99.90;;;;;;5009176;28;20038;-83
2021/05/07 05:30:54;;;;;;;4.43;1.35;;;7.30;99.90;;;;;;5009703;28;20049;-85
2021/05/07 05:33:28;;;;;;;2.90;2.00;;;7.10;99.90;;;;;;5023412;28;20053;-85
2021/05/07 05:35:59;;;;;;;1.70;1.33;;;7.10;99.90;;;;;;5011481;28;20033;-84
2021/05/07 05:38:29;;;;;;;1.40;0.93;;;7.00;99.90;;;;;;4980008;28;20414;-83
2021/05/07 05:40:56;;;;;;;1.55;0.88;;;6.80;99.90;;;;;;5030290;28;20502;-82
2021/05/07 05:43:24;;;;;;;1.95;1.20;;;6.70;99.90;;;;;;5029901;28;20044;-83
2021/05/07 05:45:51;;;;;;;0.70;0.70;;;6.60;99.90;;;;;;5013242;28;20050;-82
2021/05/07 05:48:19;;;;;;;3.92;1.30;;;6.60;99.90;;;;;;5015438;28;20053;-83
2021/05/07 05:50:49;;;;;;;1.00;1.00;;;6.60;99.90;;;;;;4995285;28;20053;-82
2021/05/07 05:53:18;;;;;;;4.75;1.55;;;6.60;99.90;;;;;;5018394;28;20508;-84
2021/05/07 05:55:46;;;;;;;0.68;0.68;;;6.60;99.90;;;;;;5033668;28;20431;-82
2021/05/07 05:58:16;;;;;;;2.75;1.45;;;6.50;99.90;;;;;;5033415;28;20056;-83
2021/05/07 06:00:44;;;;;;;2.10;1.10;;;6.40;99.90;;;;;;5033623;28;20037;-81
2021/05/07 06:03:11;;;;;;;2.33;1.00;;;6.40;99.90;;;;;;5033103;28;20053;-82
2021/05/07 06:05:40;;;;;;;2.40;1.60;;;6.30;99.90;;;;;;5010409;28;20076;-82
2021/05/07 06:08:08;;;;;;;2.35;1.00;;;6.30;99.90;;;;;;5027536;28;20042;-80
2021/05/07 06:10:38;;;;;;;1.77;0.80;;;6.30;99.90;;;;;;4979771;28;20061;-81
2021/05/07 06:13:08;;;;;;;0.80;0.80;;;6.30;99.90;;;;;;5013341;28;20053;-81
2021/05/07 06:15:41;;;;;;;2.78;1.35;;;6.30;99.90;;;;;;4991091;28;20045;-82
2021/05/07 06:18:09;;;;;;;2.05;0.93;;;6.30;99.90;;;;;;4993870;28;20050;-80
2021/05/07 06:20:37;;;;;;;0.70;0.70;;;6.30;99.90;;;;;;5018564;28;20479;-81
2021/05/07 06:23:05;;;;;;;1.38;0.73;;;6.30;99.90;;;;;;5004740;28;20049;-80
2021/05/07 06:25:36;;;;;;;1.02;0.90;;;6.30;99.90;;;;;;5000805;28;20050;-81
2021/05/07 06:28:09;;;;;;;0.90;0.80;;;6.30;99.90;;;;;;4982010;28;20565;-83
2021/05/07 06:30:37;;;;;;;3.90;0.70;;;6.20;99.90;;;;;;5031971;28;20417;-80
2021/05/07 06:33:08;;;;;;;0.70;0.70;;;6.20;99.90;;;;;;5014589;28;20052;-82
2021/05/07 06:35:36;;;;;;;0.90;0.75;;;6.20;99.90;;;;;;5006666;28;20359;-82
2021/05/07 06:38:08;;;;;;;0.70;0.70;;;6.30;99.90;;;;;;5011630;28;20050;-82
2021/05/07 06:40:37;;;;;;;0.60;0.60;;;6.40;99.90;;;;;;4994487;28;20042;-83
2021/05/07 06:43:05;;;;;;;0.60;0.60;;;6.50;99.90;;;;;;5011831;28;20041;-81
2021/05/07 06:45:32;;;;;;;2.00;1.05;;;6.80;99.90;;;;;;5011174;28;20053;-81
2021/05/07 06:48:06;;;;;;;0.60;0.60;;;7.20;99.90;;;;;;5011272;28;20046;-83
2021/05/07 06:50:36;;;;;;;2.58;0.82;;;7.30;99.90;;;;;;5010518;28;20054;-82
2021/05/07 06:53:04;;;;;;;0.73;0.73;;;8.50;99.90;;;;;;5012033;28;20507;-82
2021/05/07 06:55:31;;;;;;;1.00;0.70;;;8.70;99.90;;;;;;4994855;28;20046;-81
2021/05/07 06:57:59;;;;;;;1.40;1.33;;;8.00;99.90;;;;;;5011764;28;20050;-81
2021/05/07 07:00:28;;;;;;;0.77;0.77;;;7.70;99.90;;;;;;5010568;28;20045;-82
2021/05/07 07:02:59;;;;;;;2.45;0.75;;;7.50;99.90;;;;;;5027519;28;20042;-80
2021/05/07 07:05:28;;;;;;;0.45;0.45;;;7.00;99.90;;;;;;5011063;28;20056;-82
2021/05/07 07:07:57;;;;;;;1.65;0.80;;;7.00;99.90;;;;;;5030872;28;20053;-81
2021/05/07 07:10:26;;;;;;;0.68;0.60;;;7.10;99.90;;;;;;5022603;28;20049;-83
2021/05/07 07:12:54;;;;;;;0.50;0.50;;;8.20;99.90;;;;;;5013805;28;20068;-82
2021/05/07 07:15:22;;;;;;;0.68;0.68;;;9.00;99.90;;;;;;4994813;28;20068;-82
2021/05/07 07:17:55;;;;;;;1.20;0.57;;;9.80;99.50;;;;;;4997282;28;20406;-83
2021/05/07 07:20:23;;;;;;;1.55;0.60;;;10.40;99.70;;;;;;4977734;28;20052;-81
2021/05/07 07:22:50;;;;;;;0.60;0.60;;;10.60;97.00;;;;;;5006260;28;20042;-80
2021/05/07 07:25:18;;;;;;;0.68;0.68;;;11.40;95.80;;;;;;5010744;28;20068;-81
2021/05/07 07:27:45;;;;;;;0.45;0.45;;;11.70;94.10;;;;;;5011772;28;20491;-82
2021/05/07 07:30:15;;;;;;;0.40;0.40;;;10.00;98.60;;;;;;5012276;28;20062;-81
2021/05/07 07:32:43;;;;;;;0.52;0.47;;;10.00;99.90;;;;;;5003510;28;20054;-80
2021/05/07 07:35:11;;;;;;;0.50;0.50;;;9.60;99.90;;;;;;4995940;28;20065;-82
2021/05/07 07:37:38;;;;;;;0.60;0.60;;;9.50;99.90;;;;;;4992047;28;20065;-80
2021/05/07 07:40:07;;;;;;;0.50;0.50;;;8.60;99.90;;;;;;4991826;28;20049;-79
2021/05/07 07:42:34;;;;;;;0.50;0.50;;;8.50;99.90;;;;;;4991383;28;20404;-80
2021/05/07 07:45:03;;;;;;;2.22;0.77;;;8.20;99.90;;;;;;5011883;28;20054;-80
2021/05/07 07:47:30;;;;;;;0.50;0.50;;;8.00;99.90;;;;;;5009718;28;20430;-80
2021/05/07 07:49:58;;;;;;;0.60;0.60;;;7.90;99.90;;;;;;5011974;28;20058;-80
2021/05/07 07:52:25;;;;;;;0.60;0.60;;;7.70;99.90;;;;;;5010879;28;20517;-81
2021/05/07 07:54:53;;;;;;;0.40;0.40;;;7.70;99.90;;;;;;5002085;28;20037;-81
2021/05/07 07:57:27;;;;;;;0.60;0.60;;;7.60;99.90;;;;;;4992446;28;20393;-83
2021/05/07 07:59:56;;;;;;;3.35;0.60;;;7.70;99.90;;;;;;4990588;28;20534;-83
2021/05/07 08:02:26;;;;;;;0.50;0.50;;;7.80;99.90;;;;;;4973882;28;20049;-82
2021/05/07 08:04:56;;;;;;;0.60;0.60;;;7.80;99.90;;;;;;4995786;28;20561;-82
2021/05/07 08:07:23;;;;;;;0.60;0.45;;;7.90;99.90;;;;;;4993116;28;20053;-82
2021/05/07 08:09:51;;;;;;;1.00;0.70;;;7.90;99.90;;;;;;5008244;28;20073;-82
2021/05/07 08:12:19;;;;;;;0.55;0.55;;;7.90;99.90;;;;;;5010613;28;20050;-81
2021/05/07 08:14:47;;;;;;;0.70;0.70;;;7.90;99.90;;;;;;5009299;28;20042;-82
2021/05/07 08:17:15;;;;;;;0.47;0.47;;;7.80;99.90;;;;;;5009001;28;20054;-82
2021/05/07 08:19:44;;;;;;;1.00;0.90;;;7.80;99.90;;;;;;4992637;28;20558;-81
2021/05/07 08:22:12;;;;;;;1.98;1.10;;;7.90;99.90;;;;;;5008427;28;20054;-82
2021/05/07 08:24:40;;;;;;;2.10;0.88;;;7.80;99.90;;;;;;5008851;28;20034;-81
2021/05/07 08:27:07;;;;;;;2.05;0.80;;;7.70;99.90;;;;;;4976616;28;20053;-82
2021/05/07 08:29:34;;;;;;;0.70;0.70;;;7.70;99.90;;;;;;5009582;28;20061;-82
2021/05/07 08:32:03;;;;;;;0.50;0.50;;;7.60;99.90;;;;;;5001393;28;20046;-83
2021/05/07 08:34:31;;;;;;;2.05;0.65;;;7.70;99.90;;;;;;4976932;28;20050;-81
2021/05/07 08:36:58;;;;;;;0.52;0.52;;;7.10;99.90;;;;;;4991851;28;20439;-77
2021/05/07 08:39:25;;;;;;;0.68;0.68;;;6.20;99.90;;;;;;5009529;28;20053;-80
2021/05/07 08:41:53;;;;;;;0.50;0.50;;;5.70;99.90;;;;;;5008829;28;20056;-76
2021/05/07 08:44:21;;;;;;;0.60;0.60;;;5.60;99.90;;;;;;5010321;28;20050;-81
2021/05/07 08:46:49;;;;;;;2.50;0.93;;;5.50;99.90;;;;;;4992235;28;20053;-80
2021/05/07 08:49:20;;;;;;;0.70;0.60;;;5.70;99.90;;;;;;5009460;28;20061;-83
2021/05/07 08:51:47;;;;;;;0.57;0.57;;;5.80;99.90;;;;;;4988513;28;20042;-81
2021/05/07 08:54:15;;;;;;;0.50;0.50;;;5.70;99.90;;;;;;4991462;28;20058;-84
2021/05/07 08:56:42;;;;;;;2.03;0.80;;;5.60;99.90;;;;;;4972790;28;20050;-80
2021/05/07 08:59:10;;;;;;;0.52;0.52;;;5.50;99.90;;;;;;5009437;28;20056;-85
2021/05/07 09:01:42;;;;;;;0.50;0.50;;;5.40;99.90;;;;;;4992639;28;20060;-82
2021/05/07 09:04:15;;;;;;;0.60;0.60;;;5.30;99.90;;;;;;4976285;28;20052;-79
2021/05/07 09:06:55;;;;;;;0.50;0.50;;;5.60;99.90;;;;;;5005564;28;20046;-79
2021/05/07 09:09:27;;;;;;;0.60;0.60;;;5.80;99.90;;;;;;5010615;28;20054;-79
2021/05/07 09:12:01;;;;;;;0.60;0.60;;;5.90;99.90;;;;;;5008690;28;20046;-78
2021/05/07 09:14:30;;;;;;;0.60;0.60;;;5.90;99.90;;;;;;5008661;28;20046;-78
2021/05/07 09:17:20;;;;;;;0.57;0.57;;;6.20;99.90;;;;;;5009265;28;20058;-82
2021/05/07 09:19:50;;;;;;;0.70;0.70;;;6.30;99.90;;;;;;5009486;28;20065;-86
2021/05/07 09:22:27;;;;;;;0.60;0.60;;;6.50;99.90;;;;;;4996020;28;20057;-82
2021/05/07 09:25:07;;;;;;;1.75;0.80;;;6.00;99.90;;;;;;4995341;28;20496;-84
2021/05/07 09:27:35;;;;;;;1.23;0.70;;;5.90;99.90;;;;;;4980026;28;20836;-84
2021/05/07 09:30:06;;;;;;;1.40;0.70;;;5.90;99.90;;;;;;5003559;28;20476;-80
2021/05/07 09:32:36;;;;;;;0.60;0.55;;;5.90;99.90;;;;;;4971904;28;20050;-79
2021/05/07 09:35:13;;;;;;;0.60;0.60;;;5.80;99.90;;;;;;5001862;28;20574;-84
2021/05/07 09:37:43;;;;;;;0.50;0.50;;;5.70;99.90;;;;;;4995803;28;20065;-78
2021/05/07 09:40:13;;;;;;;0.75;0.75;;;5.80;99.90;;;;;;4994981;28;20049;-81
2021/05/07 09:42:49;;;;;;;0.70;0.70;;;6.00;99.90;;;;;;5013008;28;20049;-79
2021/05/07 09:45:27;;;;;;;0.90;0.90;;;6.20;99.90;;;;;;5008436;28;20061;-79
2021/05/07 09:47:55;;;;;;;0.70;0.60;;;6.30;99.90;;;;;;4992928;28;20050;-79
2021/05/07 09:50:54;;;;;;;0.68;0.68;;;6.30;99.90;;;;;;4995153;28;20050;-80
2021/05/07 09:53:24;;;;;;;0.80;0.80;;;6.20;99.90;;;;;;5013005;28;20054;-78
2021/05/07 09:56:03;;;;;;;0.95;0.95;;;6.20;99.90;;;;;;5013187;28;20050;-80
2021/05/07 09:58:30;;;;;;;0.63;0.63;;;6.00;99.90;;;;;;5012583;28;20042;-79
2021/05/07 10:01:01;;;;;;;0.70;0.70;;;5.90;99.90;;;;;;5013298;28;20061;-81
2021/05/07 10:03:28;;;;;;;0.88;0.88;;;5.90;99.90;;;;;;5013198;28;20407;-84
2021/05/07 10:05:56;;;;;;;0.85;0.85;;;6.00;99.90;;;;;;5005451;28;20054;-80
2021/05/07 10:08:24;;;;;;;1.30;0.90;;;6.10;99.90;;;;;;5011694;28;20045;-80
2021/05/07 10:10:58;;;;;;;0.73;0.73;;;6.30;99.90;;;;;;5010950;28;20050;-81
2021/05/07 10:13:28;;;;;;;0.70;0.70;;;6.50;99.90;;;;;;4992433;28;20061;-77
2021/05/07 10:16:06;;;;;;;0.50;0.50;;;6.40;99.90;;;;;;5010730;28;20682;-80
2021/05/07 10:18:37;;;;;;;0.70;0.70;;;6.60;99.90;;;;;;4995321;28;20057;-80
2021/05/07 10:21:10;;;;;;;0.60;0.60;;;6.40;99.90;;;;;;5018473;28;20053;-80
2021/05/07 10:23:51;;;;;;;0.50;0.50;;;6.30;99.90;;;;;;5032092;28;20046;-80
2021/05/07 10:26:32;;;;;;;0.82;0.82;;;6.30;99.90;;;;;;5014533;28;20053;-78
2021/05/07 10:28:59;;;;;;;0.73;0.70;;;6.20;99.90;;;;;;5012817;28;20502;-80
2021/05/07 10:31:27;;;;;;;0.68;0.68;;;6.10;99.90;;;;;;5031611;28;20041;-82
2021/05/07 10:34:01;;;;;;;0.70;0.70;;;6.10;99.90;;;;;;5032127;28;20376;-87
2021/05/07 10:36:47;;;;;;;0.60;0.60;;;6.10;99.90;;;;;;5011225;28;20064;-86
2021/05/07 10:39:18;;;;;;;0.90;0.85;;;6.20;99.90;;;;;;5014578;28;20056;-86
2021/05/07 10:41:48;;;;;;;1.00;1.00;;;6.70;99.90;;;;;;5032844;28;20064;-84
2021/05/07 10:44:19;;;;;;;1.10;1.10;;;7.00;99.90;;;;;;5032189;28;20054;-86
2021/05/07 10:46:58;;;;;;;3.10;1.77;;;7.20;99.90;;;;;;5031336;28;20042;-84
2021/05/07 10:49:39;;;;;;;0.90;0.90;;;7.30;99.90;;;;;;5014916;28;20057;-82
2021/05/07 10:52:10;;;;;;;0.90;0.90;;;7.10;99.90;;;;;;5031872;28;20049;-85
2021/05/07 10:54:46;;;;;;;0.80;0.80;;;7.10;99.90;;;;;;5014351;28;20049;-82
2021/05/07 10:57:29;;;;;;;1.20;1.10;;;6.80;99.90;;;;;;5032314;28;20049;-83
2021/05/07 11:00:02;;;;;;;0.90;0.90;;;6.60;99.90;;;;;;5031759;28;20401;-83
2021/05/07 11:02:48;;;;;;;2.55;1.67;;;6.50;99.90;;;;;;4981421;28;20065;-88
2021/05/07 11:05:38;;;;;;;1.38;1.27;;;6.30;99.90;;;;;;5019621;28;20057;-86
2021/05/07 11:08:07;;;;;;;0.90;0.90;;;6.20;99.90;;;;;;5030909;28;20049;-84
2021/05/07 11:10:35;;;;;;;1.02;1.02;;;6.30;99.90;;;;;;5030624;28;20072;-84
2021/05/07 11:13:05;;;;;;;0.90;0.90;;;6.40;99.90;;;;;;5032450;28;20045;-87
2021/05/07 11:15:33;;;;;;;1.45;1.35;;;6.50;99.90;;;;;;5012942;28;20045;-86
2021/05/07 11:18:06;;;;;;;1.05;1.05;;;6.30;99.90;;;;;;5014313;28;20057;-85
2021/05/07 11:20:35;;;;;;;1.80;1.25;;;6.30;99.90;;;;;;5013651;28;20045;-86
2021/05/07 11:23:10;;;;;;;1.35;1.30;;;6.30;99.90;;;;;;5013908;28;20046;-84
2021/05/07 11:25:39;;;;;;;1.65;1.48;;;6.20;99.90;;;;;;5008775;28;20061;-83
2021/05/07 11:28:18;;;;;;;1.15;1.15;;;6.20;99.90;;;;;;4994256;28;20514;-84
2021/05/07 11:30:54;;;;;;;1.40;1.30;;;6.20;99.90;;;;;;4994375;28;20044;-84
2021/05/07 11:33:28;;;;;;;1.55;1.38;;;6.20;99.90;;;;;;5024812;28;20064;-85
2021/05/07 11:36:10;;;;;;;1.70;1.60;;;6.30;99.90;;;;;;5002871;28;20041;-84
2021/05/07 11:38:44;;;;;;;1.83;1.73;;;6.20;99.90;;;;;;5003758;28;20041;-87
2021/05/07 11:41:22;;;;;;;1.55;1.45;;;6.50;99.90;;;;;;5011203;28;20073;-82
2021/05/07 11:43:54;;;;;;;1.95;1.85;;;6.60;99.90;;;;;;5010487;28;20057;-83
2021/05/07 11:46:22;;;;;;;1.92;1.80;;;6.80;99.90;;;;;;5028924;28;20064;-83
2021/05/07 11:48:51;;;;;;;1.92;1.83;;;6.70;99.90;;;;;;5028313;28;20422;-83
2021/05/07 11:51:22;;;;;;;2.00;1.42;;;6.60;99.90;;;;;;5028453;28;20042;-83
2021/05/07 11:53:56;;;;;;;2.42;2.22;;;6.80;99.90;;;;;;5028848;28;20060;-84
2021/05/07 11:56:29;;;;;;;2.45;2.33;;;6.70;99.90;;;;;;5029881;28;20037;-84
2021/05/07 11:58:57;;;;;;;2.20;2.00;;;6.80;99.90;;;;;;5012770;28;20414;-84
2021/05/07 12:01:27;;;;;;;1.77;1.67;;;7.00;99.90;;;;;;4980845;28;20076;-83
2021/05/07 12:03:55;;;;;;;2.13;1.92;;;7.30;99.90;;;;;;4996873;28;20057;-82
2021/05/07 12:06:25;;;;;;;1.67;1.58;;;7.20;99.90;;;;;;4995988;28;20070;-81
2021/05/07 12:08:54;;;;;;;1.80;1.70;;;7.50;99.90;;;;;;4977430;28;20050;-82
2021/05/07 12:11:22;;;;;;;2.17;2.08;;;7.60;99.90;;;;;;4984718;28;20399;-84
2021/05/07 12:13:49;;;;;;;3.67;3.33;;;7.60;99.90;;;;;;4994349;28;20702;-85
2021/05/07 12:16:28;;;;;;;2.50;2.30;;;7.60;99.90;;;;;;5010395;28;20046;-85
2021/05/07 12:18:55;;;;;;;3.38;2.92;;;7.60;99.90;;;;;;5011910;28;20046;-86
2021/05/07 12:21:24;;;;;;;2.53;2.33;;;7.60;99.90;;;;;;4998332;28;20053;-84
2021/05/07 12:23:52;;;;;;;2.40;2.20;;;7.70;99.90;;;;;;4998035;28;20044;-82
2021/05/07 12:26:22;;;;;;;3.08;2.35;;;7.80;99.90;;;;;;5031724;28;20069;-83
2021/05/07 12:29:00;;;;;;;2.60;2.50;;;7.60;99.90;;;;;;5012998;28;20045;-83
2021/05/07 12:31:30;;;;;;;2.50;2.30;;;7.50;99.90;;;;;;5012806;28;20072;-82
2021/05/07 12:34:00;;;;;;;2.20;2.10;;;7.50;99.90;;;;;;5030763;28;20056;-83
2021/05/07 12:36:28;;;;;;;2.67;2.45;;;7.50;99.90;;;;;;4981553;28;20479;-84
2021/05/07 12:39:07;;;;;;;3.78;2.47;;;7.50;99.90;;;;;;5010081;28;20041;-86
2021/05/07 12:41:45;;;;;;;3.85;3.55;;;7.60;99.90;;;;;;5011059;28;20509;-85
2021/05/07 12:44:13;;;;;;;3.35;3.05;;;7.60;99.70;;;;;;5010476;28;20138;-84
2021/05/07 12:46:41;;;;;;;6.35;4.15;;;7.50;99.10;;;;;;4951158;28;20053;-84
2021/05/07 12:49:09;;;;;;;3.95;2.95;;;7.30;99.90;;;;;;4977782;28;20487;-88
2021/05/07 12:51:36;;;;;;;3.72;3.17;;;7.10;97.90;;;;;;4975840;28;20053;-86
2021/05/07 12:54:04;;;;;;;4.38;2.75;;;6.90;98.60;;;;;;4980177;28;20057;-88
2021/05/07 12:56:31;;;;;;;2.60;2.40;;;7.00;99.90;;;;;;4992875;28;20495;-88
2021/05/07 12:58:59;;;;;;;2.97;2.53;;;6.80;99.90;;;;;;4992783;28;20058;-89
2021/05/07 13:01:28;;;;;;;3.95;3.65;;;6.70;99.60;;;;;;4992949;28;20065;-92
2021/05/07 13:03:55;;;;;;;4.90;4.35;;;6.40;99.70;;;;;;4992900;28;20041;-90
2021/05/07 13:06:23;;;;;;;3.22;2.92;;;6.10;99.90;;;;;;4993704;28;20076;-85
2021/05/07 13:08:51;;;;;;;3.83;3.53;;;6.00;99.90;;;;;;5007162;28;20046;-88
2021/05/07 13:11:19;;;;;;;4.00;3.60;;;6.10;99.90;;;;;;4963553;28;20045;-89
2021/05/07 13:13:47;;;;;;;3.47;3.28;;;6.20;99.90;;;;;;4980118;28;20056;-85
2021/05/07 13:16:15;;;;;;;4.25;3.22;;;6.40;99.90;;;;;;4975541;28;20868;-83